createdAt,value
2022-12-01T00:01:37.645Z,6.50
2022-12-01T00:04:03.996Z,6.51
2022-12-01T00:06:30.260Z,6.53
2022-12-01T00:09:19.404Z,6.55
2022-12-01T00:11:46.316Z,6.61
2022-12-01T00:14:12.656Z,6.60
2022-12-01T00:16:40.399Z,6.61
2022-12-01T00:19:06.874Z,6.48
2022-12-01T00:21:33.149Z,6.48
2022-12-01T00:23:59.545Z,6.55
2022-12-01T00:26:26.060Z,6.60
2022-12-01T00:28:52.907Z,6.65
2022-12-01T00:31:19.473Z,6.56
2022-12-01T00:33:45.802Z,6.57
2022-12-01T00:36:12.081Z,6.68
2022-12-01T00:38:38.443Z,6.73
2022-12-01T00:41:04.787Z,6.64
2022-12-01T00:43:31.099Z,6.52
2022-12-01T00:45:57.491Z,6.56
2022-12-01T00:48:23.795Z,6.60
2022-12-01T00:50:50.370Z,6.62
2022-12-01T00:53:16.643Z,6.60
2022-12-01T00:55:42.918Z,6.54
2022-12-01T00:58:09.376Z,6.57
2022-12-01T01:00:38.593Z,6.65
2022-12-01T01:03:05.797Z,6.82
2022-12-01T01:05:35.192Z,6.92
2022-12-01T01:08:01.537Z,7.04
2022-12-01T01:10:27.964Z,6.87
2022-12-01T01:12:54.255Z,6.79
2022-12-01T01:15:20.516Z,6.65
2022-12-01T01:17:46.836Z,6.62
2022-12-01T01:20:13.324Z,6.61
2022-12-01T01:22:39.591Z,6.56
2022-12-01T01:25:06.078Z,6.61
2022-12-01T01:27:33.768Z,6.74
2022-12-01T01:30:00.049Z,6.78
2022-12-01T01:32:26.340Z,6.75
2022-12-01T01:34:52.623Z,6.73
2022-12-01T01:37:18.901Z,6.62
2022-12-01T01:39:45.584Z,6.54
2022-12-01T01:42:15.040Z,6.54
2022-12-01T01:44:49.045Z,6.35
2022-12-01T01:47:16.149Z,6.33
2022-12-01T01:49:42.436Z,6.56
2022-12-01T01:52:08.693Z,6.60
2022-12-01T01:54:35.995Z,6.49
2022-12-01T01:57:02.261Z,6.52
2022-12-01T01:59:29.785Z,6.56
2022-12-01T02:02:02.731Z,6.63
2022-12-01T02:04:29.057Z,6.63
2022-12-01T02:06:55.320Z,6.71
2022-12-01T02:09:21.584Z,6.60
2022-12-01T02:12:03.343Z,6.25
2022-12-01T02:14:33.756Z,5.83
2022-12-01T02:17:12.372Z,5.72
2022-12-01T02:19:42.021Z,5.74
2022-12-01T02:22:19.095Z,5.84
2022-12-01T02:24:50.186Z,6.19
2022-12-01T02:27:25.654Z,6.14
2022-12-01T02:29:51.889Z,5.86
2022-12-01T02:32:24.829Z,5.78
2022-12-01T02:35:06.414Z,5.70
2022-12-01T02:37:36.852Z,5.65
2022-12-01T02:40:05.950Z,5.77
2022-12-01T02:42:51.916Z,6.02
2022-12-01T02:45:20.977Z,6.20
2022-12-01T02:47:47.260Z,6.34
2022-12-01T02:50:13.529Z,6.46
2022-12-01T02:52:40.137Z,6.38
2022-12-01T02:55:06.494Z,6.22
2022-12-01T02:57:32.937Z,6.17
2022-12-01T02:59:59.316Z,6.00
2022-12-01T03:02:25.716Z,5.88
2022-12-01T03:04:56.935Z,5.70
2022-12-01T03:07:42.366Z,5.50
2022-12-01T03:10:12.838Z,5.49
2022-12-01T03:12:46.801Z,5.59
2022-12-01T03:15:31.010Z,5.70
2022-12-01T03:17:59.598Z,5.79
2022-12-01T03:20:32.801Z,5.77
2022-12-01T03:23:00.397Z,5.78
2022-12-01T03:25:26.658Z,5.71
2022-12-01T03:28:20.249Z,5.61
2022-12-01T03:30:42.633Z,5.52
2022-12-01T03:33:09.827Z,5.52
2022-12-01T03:35:41.761Z,5.48
2022-12-01T03:38:28.308Z,5.47
2022-12-01T03:40:58.233Z,5.55
2022-12-01T03:43:29.067Z,5.59
2022-12-01T03:45:56.782Z,5.88
2022-12-01T03:48:24.072Z,6.04
2022-12-01T03:51:14.017Z,6.14
2022-12-01T03:54:00.597Z,6.24
2022-12-01T03:56:27.639Z,6.16
2022-12-01T03:58:54.788Z,6.22
2022-12-01T04:01:22.274Z,6.18
2022-12-01T04:03:48.615Z,6.25
2022-12-01T04:06:14.901Z,6.18
2022-12-01T04:08:41.169Z,5.94
2022-12-01T04:11:32.411Z,5.83
2022-12-01T04:13:59.013Z,5.85
2022-12-01T04:16:25.317Z,5.84
2022-12-01T04:18:51.647Z,6.02
2022-12-01T04:21:17.925Z,6.27
2022-12-01T04:24:02.534Z,6.41
2022-12-01T04:26:29.373Z,6.47
2022-12-01T04:28:55.677Z,6.55
2022-12-01T04:31:22.112Z,6.45
2022-12-01T04:33:48.469Z,6.42
2022-12-01T04:36:14.800Z,6.34
2022-12-01T04:38:41.093Z,6.22
2022-12-01T04:41:10.599Z,6.25
2022-12-01T04:43:36.858Z,6.01
2022-12-01T04:46:03.495Z,5.97
2022-12-01T04:48:29.795Z,5.95
2022-12-01T04:50:56.067Z,5.78
2022-12-01T04:53:22.393Z,5.54
2022-12-01T04:55:48.682Z,5.58
2022-12-01T04:58:14.949Z,5.64
2022-12-01T05:00:41.297Z,5.74
2022-12-01T05:03:13.530Z,5.96
2022-12-01T05:05:41.275Z,6.02
2022-12-01T05:08:07.668Z,6.08
2022-12-01T05:10:37.080Z,5.95
2022-12-01T05:13:06.334Z,6.05
2022-12-01T05:15:32.632Z,6.24
2022-12-01T05:17:59.024Z,6.30
2022-12-01T05:20:44.032Z,5.95
2022-12-01T05:23:15.248Z,6.12
2022-12-01T05:25:43.169Z,5.97
2022-12-01T05:28:09.520Z,5.81
2022-12-01T05:30:35.955Z,6.00
2022-12-01T05:33:02.309Z,5.95
2022-12-01T05:35:28.635Z,6.12
2022-12-01T05:37:55.446Z,6.23
2022-12-01T05:40:21.720Z,6.34
2022-12-01T05:42:48.001Z,6.31
2022-12-01T05:45:14.381Z,5.98
2022-12-01T05:47:40.660Z,6.14
2022-12-01T05:50:07.358Z,6.16
2022-12-01T05:52:34.514Z,6.10
2022-12-01T05:55:01.240Z,6.06
2022-12-01T05:57:27.552Z,6.14
2022-12-01T05:59:53.832Z,6.05
2022-12-01T06:02:20.165Z,6.22
2022-12-01T06:04:46.688Z,6.18
2022-12-01T06:07:12.972Z,6.17
2022-12-01T06:09:39.234Z,5.97
2022-12-01T06:12:05.590Z,5.84
2022-12-01T06:14:31.843Z,5.99
2022-12-01T06:16:58.125Z,6.06
2022-12-01T06:19:24.512Z,6.16
2022-12-01T06:21:50.816Z,6.17
2022-12-01T06:24:17.120Z,6.21
2022-12-01T06:26:43.413Z,5.90
2022-12-01T06:29:10.594Z,6.13
2022-12-01T06:31:36.966Z,6.30
2022-12-01T06:34:03.305Z,5.96
2022-12-01T06:36:29.603Z,5.89
2022-12-01T06:38:55.884Z,6.01
2022-12-01T06:41:22.167Z,6.00
2022-12-01T06:43:48.460Z,5.92
2022-12-01T06:46:14.773Z,5.81
2022-12-01T06:48:41.055Z,5.91
2022-12-01T06:51:07.348Z,5.93
2022-12-01T06:53:33.641Z,6.00
2022-12-01T06:56:03.332Z,6.06
2022-12-01T06:58:29.970Z,6.12
2022-12-01T07:00:57.356Z,6.14
2022-12-01T07:03:23.777Z,6.21
2022-12-01T07:05:59.773Z,6.29
2022-12-01T07:08:26.641Z,6.17
2022-12-01T07:11:12.565Z,6.12
2022-12-01T07:13:39.204Z,6.38
2022-12-01T07:16:05.864Z,6.42
2022-12-01T07:18:32.309Z,6.51
2022-12-01T07:21:08.326Z,6.50
2022-12-01T07:23:34.725Z,6.57
2022-12-01T07:26:21.513Z,6.56
2022-12-01T07:28:47.834Z,6.54
2022-12-01T07:31:15.087Z,6.47
2022-12-01T07:33:41.483Z,6.39
2022-12-01T07:36:08.135Z,6.47
2022-12-01T07:38:34.419Z,6.45
2022-12-01T07:41:03.449Z,5.90
2022-12-01T07:43:30.835Z,5.78
2022-12-01T07:45:57.196Z,5.77
2022-12-01T07:48:23.510Z,5.87
2022-12-01T07:50:49.779Z,5.97
2022-12-01T07:53:16.080Z,6.24
2022-12-01T07:55:47.577Z,6.37
2022-12-01T07:58:13.845Z,6.49
2022-12-01T08:00:40.119Z,6.46
2022-12-01T08:03:06.456Z,6.73
2022-12-01T08:05:32.825Z,6.83
2022-12-01T08:07:59.241Z,6.87
2022-12-01T08:10:25.650Z,7.03
2022-12-01T08:12:51.945Z,6.97
2022-12-01T08:15:18.199Z,6.79
2022-12-01T08:17:44.480Z,6.82
2022-12-01T08:20:12.086Z,6.82
2022-12-01T08:22:38.357Z,6.84
2022-12-01T08:25:04.787Z,6.96
2022-12-01T08:27:31.061Z,6.97
2022-12-01T08:29:57.337Z,7.11
2022-12-01T08:32:23.712Z,7.11
2022-12-01T08:34:53.540Z,7.04
2022-12-01T08:37:20.243Z,7.12
2022-12-01T08:39:46.568Z,7.09
2022-12-01T08:42:13.111Z,6.99
2022-12-01T08:44:39.443Z,6.96
2022-12-01T08:47:05.777Z,6.78
2022-12-01T08:49:32.075Z,6.46
2022-12-01T08:51:58.355Z,5.67
2022-12-01T08:54:24.636Z,5.72
2022-12-01T08:56:50.964Z,5.83
2022-12-01T08:59:17.224Z,6.20
2022-12-01T09:01:52.553Z,6.30
2022-12-01T09:04:19.479Z,6.64
2022-12-01T09:06:46.155Z,6.60
2022-12-01T09:09:13.268Z,6.53
2022-12-01T09:11:39.920Z,6.61
2022-12-01T09:14:06.274Z,6.71
2022-12-01T09:16:32.574Z,6.50
2022-12-01T09:18:58.910Z,6.56
2022-12-01T09:21:26.130Z,6.52
2022-12-01T09:23:52.399Z,6.21
2022-12-01T09:26:19.455Z,5.99
2022-12-01T09:28:45.977Z,6.28
2022-12-01T09:31:12.498Z,6.34
2022-12-01T09:33:38.818Z,6.48
2022-12-01T09:36:05.568Z,6.59
2022-12-01T09:38:32.286Z,6.75
2022-12-01T09:40:59.514Z,6.90
2022-12-01T09:43:26.919Z,6.88
2022-12-01T09:46:03.879Z,6.65
2022-12-01T09:48:34.440Z,6.63
2022-12-01T09:51:00.717Z,6.69
2022-12-01T09:53:28.829Z,6.58
2022-12-01T09:56:00.644Z,6.57
2022-12-01T09:58:31.240Z,6.44
2022-12-01T10:00:57.547Z,5.84
2022-12-01T10:03:23.873Z,5.96
2022-12-01T10:06:26.123Z,6.11
2022-12-01T10:08:51.115Z,6.35
2022-12-01T10:11:24.811Z,6.18
2022-12-01T10:13:51.092Z,6.17
2022-12-01T10:16:18.691Z,6.10
2022-12-01T10:18:48.496Z,5.95
2022-12-01T10:21:20.989Z,6.10
2022-12-01T10:23:50.873Z,6.28
2022-12-01T10:26:20.231Z,6.36
2022-12-01T10:28:52.716Z,6.31
2022-12-01T10:31:20.195Z,6.53
2022-12-01T10:33:54.613Z,6.79
2022-12-01T10:36:21.181Z,6.92
2022-12-01T10:38:47.500Z,6.79
2022-12-01T10:41:14.148Z,6.78
2022-12-01T10:44:00.735Z,6.92
2022-12-01T10:46:33.843Z,7.11
2022-12-01T10:49:00.609Z,7.02
2022-12-01T10:51:27.224Z,7.13
2022-12-01T10:53:59.794Z,7.02
2022-12-01T10:56:26.092Z,6.95
2022-12-01T10:58:53.154Z,6.97
2022-12-01T11:01:23.741Z,7.14
2022-12-01T11:03:51.244Z,7.25
2022-12-01T11:06:20.773Z,7.23
2022-12-01T11:08:50.556Z,7.32
2022-12-01T11:11:23.013Z,7.36
2022-12-01T11:13:49.303Z,7.41
2022-12-01T11:16:33.228Z,7.44
2022-12-01T11:19:09.886Z,7.42
2022-12-01T11:21:36.235Z,7.40
2022-12-01T11:24:02.507Z,7.44
2022-12-01T11:26:31.788Z,7.53
2022-12-01T11:29:04.969Z,7.58
2022-12-01T11:31:37.632Z,7.43
2022-12-01T11:34:04.057Z,7.50
2022-12-01T11:36:33.355Z,7.58
2022-12-01T11:39:00.321Z,7.54
2022-12-01T11:41:30.857Z,7.57
2022-12-01T11:44:01.910Z,7.68
2022-12-01T11:46:30.804Z,7.79
2022-12-01T11:48:57.633Z,7.59
2022-12-01T11:51:23.870Z,7.45
2022-12-01T11:53:50.142Z,7.23
2022-12-01T11:56:28.582Z,7.02
2022-12-01T11:58:57.227Z,6.77
2022-12-01T12:01:23.464Z,6.66
2022-12-01T12:03:53.192Z,6.30
2022-12-01T12:09:19.010Z,6.47
2022-12-01T12:11:49.885Z,6.31
2022-12-01T12:14:19.285Z,6.53
2022-12-01T12:16:48.466Z,6.72
2022-12-01T12:19:25.387Z,6.71
2022-12-01T12:22:09.777Z,6.55
2022-12-01T12:24:39.205Z,6.43
2022-12-01T12:27:24.256Z,6.62
2022-12-01T12:30:09.464Z,6.83
2022-12-01T12:32:46.445Z,6.72
2022-12-01T12:35:31.465Z,6.94
2022-12-01T12:38:00.848Z,7.15
2022-12-01T12:40:27.463Z,7.03
2022-12-01T12:42:53.744Z,6.71
2022-12-01T12:45:25.922Z,6.81
2022-12-01T12:48:11.293Z,6.74
2022-12-01T12:51:00.569Z,7.03
2022-12-01T12:53:38.719Z,7.30
2022-12-01T12:56:05.600Z,7.22
2022-12-01T12:58:34.415Z,7.17
2022-12-01T13:01:01.694Z,7.31
2022-12-01T13:03:35.335Z,7.46
2022-12-01T13:06:01.557Z,7.41
2022-12-01T13:08:31.180Z,7.20
2022-12-01T13:10:58.948Z,7.15
2022-12-01T13:13:31.540Z,6.93
2022-12-01T13:15:58.119Z,7.00
2022-12-01T13:18:24.432Z,6.91
2022-12-01T13:20:50.703Z,7.05
2022-12-01T13:23:17.840Z,7.04
2022-12-01T13:25:44.161Z,6.93
2022-12-01T13:28:15.147Z,6.85
2022-12-01T13:30:41.426Z,6.86
2022-12-01T13:33:07.725Z,6.73
2022-12-01T13:35:35.073Z,6.66
2022-12-01T13:38:13.717Z,6.43
2022-12-01T13:40:40.024Z,6.52
2022-12-01T13:43:10.668Z,6.30
2022-12-01T13:45:37.396Z,6.42
2022-12-01T13:48:04.271Z,6.28
2022-12-01T13:50:43.550Z,6.31
2022-12-01T13:53:11.032Z,6.46
2022-12-01T13:55:52.318Z,6.43
2022-12-01T13:58:22.564Z,6.35
2022-12-01T14:00:50.809Z,6.49
2022-12-01T14:03:17.285Z,6.59
2022-12-01T14:05:53.090Z,6.64
2022-12-01T14:08:26.308Z,6.74
2022-12-01T14:10:52.618Z,6.81
2022-12-01T14:13:19.237Z,6.81
2022-12-01T14:15:45.709Z,6.70
2022-12-01T14:18:18.004Z,6.62
2022-12-01T14:20:45.417Z,6.71
2022-12-01T14:23:13.099Z,6.77
2022-12-01T14:25:39.406Z,6.88
2022-12-01T14:28:12.158Z,6.88
2022-12-01T14:30:38.400Z,6.78
2022-12-01T14:33:23.549Z,6.81
2022-12-01T14:35:49.841Z,6.74
2022-12-01T14:38:16.125Z,6.55
2022-12-01T14:40:42.404Z,6.32
2022-12-01T14:43:27.818Z,6.25
2022-12-01T14:45:56.282Z,6.39
2022-12-01T14:48:24.764Z,6.27
2022-12-01T14:50:53.186Z,6.18
2022-12-01T14:53:26.944Z,6.04
2022-12-01T14:55:57.760Z,5.96
2022-12-01T14:58:25.594Z,5.99
2022-12-01T15:00:56.516Z,6.04
2022-12-01T15:03:26.416Z,6.03
2022-12-01T15:05:55.278Z,6.01
2022-12-01T15:08:45.814Z,6.02
2022-12-01T15:11:21.973Z,5.98
2022-12-01T15:13:49.347Z,5.83
2022-12-01T15:16:16.625Z,5.77
2022-12-01T15:18:43.120Z,5.61
2022-12-01T15:21:19.783Z,5.66
2022-12-01T15:23:52.979Z,5.66
2022-12-01T15:26:19.400Z,5.62
2022-12-01T15:28:45.660Z,5.79
2022-12-01T15:31:12.374Z,5.66
2022-12-01T15:33:41.128Z,5.59
2022-12-01T15:36:07.635Z,5.85
2022-12-01T15:38:37.014Z,5.99
2022-12-01T15:41:28.488Z,5.82
2022-12-01T15:43:57.060Z,5.38
2022-12-01T15:46:26.979Z,5.42
2022-12-01T15:49:06.179Z,5.29
2022-12-01T15:51:32.452Z,5.13
2022-12-01T15:53:59.153Z,5.01
2022-12-01T15:56:32.795Z,4.91
2022-12-01T15:59:02.785Z,4.96
2022-12-01T16:01:29.435Z,5.06
2022-12-01T16:03:56.566Z,5.21
2022-12-01T16:06:28.740Z,5.41
2022-12-01T16:09:02.231Z,5.48
2022-12-01T16:11:28.609Z,5.63
2022-12-01T16:13:58.078Z,5.71
2022-12-01T16:16:40.479Z,5.75
2022-12-01T16:19:09.892Z,5.72
2022-12-01T16:21:43.738Z,5.77
2022-12-01T16:24:13.099Z,5.64
2022-12-01T16:26:45.537Z,5.38
2022-12-01T16:29:19.445Z,5.30
2022-12-01T16:32:12.746Z,5.43
2022-12-01T16:34:57.400Z,5.54
2022-12-01T16:37:18.281Z,5.63
2022-12-01T16:39:44.575Z,5.58
2022-12-01T16:42:11.715Z,5.59
2022-12-01T16:44:38.042Z,5.71
2022-12-01T16:47:09.322Z,5.57
2022-12-01T16:49:35.594Z,5.47
2022-12-01T16:52:16.015Z,5.27
2022-12-01T16:54:48.579Z,5.18
2022-12-01T16:57:16.953Z,5.02
2022-12-01T16:59:43.688Z,5.06
2022-12-01T17:02:10.368Z,5.21
2022-12-01T17:04:36.699Z,5.31
2022-12-01T17:07:03.264Z,5.52
2022-12-01T17:09:29.533Z,5.64
2022-12-01T17:11:59.311Z,5.65
2022-12-01T17:14:25.668Z,5.68
2022-12-01T17:16:51.953Z,5.60
2022-12-01T17:19:18.280Z,5.71
2022-12-01T17:21:44.559Z,5.80
2022-12-01T17:24:10.881Z,5.90
2022-12-01T17:26:37.185Z,5.96
2022-12-01T17:29:03.486Z,5.92
2022-12-01T17:31:29.878Z,5.98
2022-12-01T17:33:56.201Z,6.03
2022-12-01T17:36:22.507Z,6.01
2022-12-01T17:38:49.588Z,5.93
2022-12-01T17:41:18.136Z,5.98
2022-12-01T17:43:44.523Z,5.97
2022-12-01T17:46:11.350Z,6.03
2022-12-01T17:48:38.187Z,6.02
2022-12-01T17:51:04.548Z,5.97
2022-12-01T17:53:30.843Z,5.96
2022-12-01T17:55:57.129Z,5.97
2022-12-01T17:58:23.472Z,6.05
2022-12-01T18:00:50.422Z,5.94
2022-12-01T18:03:16.780Z,6.08
2022-12-01T18:05:43.083Z,5.91
2022-12-01T18:08:09.509Z,5.86
2022-12-01T18:10:35.965Z,5.93
2022-12-01T18:13:02.867Z,6.02
2022-12-01T18:15:33.248Z,6.09
2022-12-01T18:18:01.060Z,6.16
2022-12-01T18:20:27.352Z,6.17
2022-12-01T18:22:53.632Z,6.12
2022-12-01T18:25:19.909Z,6.01
2022-12-01T18:27:46.203Z,6.09
2022-12-01T18:30:12.857Z,6.07
2022-12-01T18:32:39.149Z,6.08
2022-12-01T18:35:05.599Z,6.25
2022-12-01T18:37:31.963Z,6.30
2022-12-01T18:39:58.243Z,6.27
2022-12-01T18:42:24.591Z,6.21
2022-12-01T18:44:51.324Z,6.31
2022-12-01T18:47:17.800Z,6.13
2022-12-01T18:49:44.119Z,6.13
2022-12-01T18:52:10.445Z,6.20
2022-12-01T18:54:36.759Z,6.22
2022-12-01T18:57:03.067Z,6.19
2022-12-01T18:59:29.401Z,6.22
2022-12-01T19:01:55.816Z,6.39
2022-12-01T19:04:22.223Z,6.37
2022-12-01T19:06:48.503Z,6.33
2022-12-01T19:09:15.591Z,6.22
2022-12-01T19:11:41.956Z,6.12
2022-12-01T19:14:09.472Z,5.87
2022-12-01T19:16:35.811Z,5.64
2022-12-01T19:19:02.144Z,5.53
2022-12-01T19:21:28.416Z,5.59
2022-12-01T19:23:54.695Z,5.64
2022-12-01T19:26:21.770Z,5.72
2022-12-01T19:28:48.259Z,5.90
2022-12-01T19:31:15.472Z,6.14
2022-12-01T19:33:41.855Z,6.04
2022-12-01T19:36:12.087Z,6.07
2022-12-01T19:38:38.521Z,6.27
2022-12-01T19:41:05.094Z,6.31
2022-12-01T19:43:32.946Z,6.15
2022-12-01T19:46:03.731Z,6.13
2022-12-01T19:48:30.048Z,6.00
2022-12-01T19:50:56.321Z,5.94
2022-12-01T19:53:22.629Z,5.80
2022-12-01T19:55:48.907Z,5.92
2022-12-01T19:58:15.186Z,6.01
2022-12-01T20:00:41.490Z,6.00
2022-12-01T20:03:07.785Z,5.89
2022-12-01T20:05:34.049Z,6.00
2022-12-01T20:08:01.300Z,6.08
2022-12-01T20:10:27.700Z,6.32
2022-12-01T20:12:54.084Z,6.18
2022-12-01T20:15:20.393Z,6.03
2022-12-01T20:17:46.677Z,6.09
2022-12-01T20:20:13.095Z,6.29
2022-12-01T20:22:39.528Z,6.19
2022-12-01T20:25:06.498Z,6.14
2022-12-01T20:27:32.773Z,6.07
2022-12-01T20:29:59.030Z,6.22
2022-12-01T20:32:25.345Z,6.19
2022-12-01T20:34:51.781Z,6.35
2022-12-01T20:37:18.233Z,6.38
2022-12-01T20:39:44.599Z,6.26
2022-12-01T20:42:11.267Z,6.11
2022-12-01T20:44:37.610Z,6.12
2022-12-01T20:47:03.926Z,6.21
2022-12-01T20:49:30.176Z,6.18
2022-12-01T20:51:56.452Z,6.16
2022-12-01T20:54:30.539Z,6.13
2022-12-01T20:56:57.111Z,6.10
2022-12-01T20:59:23.410Z,5.87
2022-12-01T21:01:49.684Z,6.05
2022-12-01T21:04:16.044Z,6.02
2022-12-01T21:06:42.396Z,5.92
2022-12-01T21:09:08.756Z,6.07
2022-12-01T21:11:55.121Z,5.88
2022-12-01T21:14:24.165Z,5.90
2022-12-01T21:16:50.471Z,5.97
2022-12-01T21:19:19.067Z,5.79
2022-12-01T21:21:45.376Z,5.73
2022-12-01T21:24:16.790Z,5.58
2022-12-01T21:26:47.025Z,5.65
2022-12-01T21:29:24.788Z,5.64
2022-12-01T21:31:51.828Z,5.84
2022-12-01T21:34:24.756Z,5.93
2022-12-01T21:36:52.641Z,6.00
2022-12-01T21:39:20.720Z,5.97
2022-12-01T21:41:50.521Z,5.92
2022-12-01T21:44:20.493Z,5.81
2022-12-01T21:46:47.706Z,5.91
2022-12-01T21:49:16.893Z,5.79
2022-12-01T21:51:43.183Z,5.82
2022-12-01T21:54:16.392Z,5.71
2022-12-01T21:56:42.652Z,5.63
2022-12-01T21:59:29.160Z,5.66
2022-12-01T22:01:56.071Z,6.08
2022-12-01T22:04:23.278Z,6.14
2022-12-01T22:06:51.291Z,6.10
2022-12-01T22:09:28.112Z,6.01
2022-12-01T22:11:55.074Z,6.01
2022-12-01T22:14:27.044Z,5.89
2022-12-01T22:16:53.252Z,5.93
2022-12-01T22:19:37.938Z,6.00
2022-12-01T22:22:18.209Z,6.12
2022-12-01T22:24:48.513Z,5.77
2022-12-01T22:27:33.627Z,5.43
2022-12-01T22:30:11.123Z,5.21
2022-12-01T22:32:53.087Z,5.06
2022-12-01T22:35:42.917Z,5.36
2022-12-01T22:38:12.682Z,5.42
2022-12-01T22:40:38.974Z,5.43
2022-12-01T22:43:14.506Z,5.37
2022-12-01T22:45:40.963Z,5.48
2022-12-01T22:48:13.577Z,5.47
2022-12-01T22:50:39.844Z,5.37
2022-12-01T22:53:09.292Z,5.32
2022-12-01T22:55:35.568Z,5.40
2022-12-01T22:58:05.581Z,5.54
2022-12-01T23:00:32.228Z,5.69
2022-12-01T23:02:58.563Z,5.77
2022-12-01T23:05:26.193Z,5.66
2022-12-01T23:07:53.034Z,5.67
2022-12-01T23:10:19.502Z,5.58
2022-12-01T23:12:46.557Z,5.56
2022-12-01T23:15:22.079Z,5.54
2022-12-01T23:17:48.726Z,5.55
2022-12-01T23:20:20.739Z,5.47
2022-12-01T23:22:47.323Z,5.48
2022-12-01T23:25:14.514Z,5.68
2022-12-01T23:27:40.869Z,5.62
2022-12-01T23:30:07.376Z,5.55
2022-12-01T23:32:33.660Z,5.30
2022-12-01T23:35:00.608Z,5.20
2022-12-01T23:37:32.324Z,5.12
2022-12-01T23:39:58.604Z,5.25
2022-12-01T23:42:24.866Z,5.35
2022-12-01T23:44:51.374Z,5.10
2022-12-01T23:47:24.671Z,5.02
2022-12-01T23:49:53.445Z,5.11
2022-12-01T23:52:19.940Z,5.05
2022-12-01T23:54:46.216Z,5.09
2022-12-01T23:57:15.475Z,5.09
2022-12-01T23:59:41.743Z,5.09
